Here is the Quick Look data you requested

The Data originates at the National Weather Service, and is made available here by the UAlbany Department of Atmospheric and Environmental Sciences

Surface Observations

KCBE 220400Z AUTO 32004KT 10SM CLR 10/06 A3022 RMK AO2 T01000057=
KCBE 220420Z AUTO 33004KT 10SM CLR 10/06 A3022 RMK AO2 T00990058=
KCBE 220520Z AUTO 00000KT 10SM CLR 08/06 A3021 RMK AO2 T00810062=
KCBE 220540Z AUTO 33004KT 10SM CLR 08/06 A3021 RMK AO2 T00810058=
KCBE 220600Z AUTO 02004KT 10SM CLR 08/06 A3021 RMK AO2 T00800055=
KCBE 220620Z AUTO 02004KT 10SM CLR 08/06 A3021 RMK AO2 T00770057=
KCBE 220640Z AUTO 01003KT 10SM CLR 07/05 A3021 RMK AO2 T00730053=
KCBE 220700Z AUTO 00000KT 10SM CLR 07/05 A3021 RMK AO2 T00720051=
KCBE 220720Z AUTO 36005KT 10SM CLR 08/05 A3021 RMK AO2 T00760050=
KCBE 220740Z AUTO 06003KT 10SM BKN045 08/05 A3021 RMK AO2 T00760052=
KCBE 220800Z AUTO 00000KT 10SM OVC045 07/06 A3022 RMK AO2 T00650059=
KCBE 220820Z AUTO 02003KT 10SM OVC045 08/06 A3022 RMK AO2 T00790058=
KCBE 220840Z AUTO 36004KT 10SM OVC043 08/06 A3021 RMK AO2 T00830064=
KCBE 220900Z AUTO 36003KT 10SM OVC043 09/06 A3021 RMK AO2 T00850064=
KCBE 220920Z AUTO 01005KT 10SM OVC043 09/06 A3021 RMK AO2 T00920062=
KCBE 221000Z AUTO 01006KT 10SM OVC041 10/06 A3021 RMK AO2 T00990058=
KCBE 221020Z AUTO 35004KT 10SM OVC041 10/06 A3022 RMK AO2 T01000058=
KCBE 221040Z AUTO 34004KT 10SM OVC041 10/06 A3024 RMK AO2 T01030059=
KCBE 221100Z AUTO 35007KT 10SM OVC043 10/06 A3025 RMK AO2 T01040057=
KCBE 221120Z AUTO 36008KT 320V020 10SM OVC043 11/06 A3026 RMK AO2 T01060057=
KCBE 221200Z AUTO 36006KT 10SM BKN043 11/06 A3026 RMK AO2 T01090057=
KCBE 221220Z AUTO 36010KT 10SM BKN043 12/06 A3027 RMK AO2 T01160060=
KCBE 221300Z AUTO 34006KT 10SM BKN043 12/06 A3027 RMK AO2 T01220060=
KCBE 221320Z AUTO 01005KT 10SM SCT043 13/06 A3027 RMK AO2 T01300062=
KCBE 221340Z AUTO 03005KT 10SM CLR 13/06 A3027 RMK AO2 T01340060=
KCBE 221400Z AUTO 01007KT 10SM SCT036 14/06 A3027 RMK AO2 T01430061=
KCBE 221420Z AUTO 34005KT 10SM SCT038 14/06 A3027 RMK AO2 T01430057=
KCBE 221440Z AUTO 34009KT 310V020 10SM CLR 15/06 A3026 RMK AO2 T01490064=
KCBE 221500Z AUTO 36009KT 10SM CLR 15/06 A3026 RMK AO2 T01530064=
KCBE 221520Z AUTO 32009KT 10SM CLR 15/07 A3026 RMK AO2 T01540067=
KCBE 221540Z AUTO 35008KT 10SM CLR 16/06 A3025 RMK AO2 T01560063=
KCBE 221600Z AUTO 32010KT 10SM CLR 16/06 A3024 RMK AO2 T01580060=
KCBE 221620Z AUTO 31007KT 10SM CLR 16/07 A3024 RMK AO2 T01650068=
KCBE 221640Z AUTO 29009KT 10SM CLR 17/07 A3023 RMK AO2 T01730065=
KCBE 221700Z AUTO 29005KT 10SM CLR 18/07 A3022 RMK AO2 T01760066=
KCBE 221720Z AUTO 34007KT 10SM CLR 18/07 A3021 RMK AO2 T01840068=
KCBE 221740Z AUTO 33007KT 10SM CLR 18/07 A3020 RMK AO2 T01830067=
KCBE 221800Z AUTO 31007KT 10SM CLR 19/06 A3019 RMK AO2 T01870064=
KCBE 221820Z AUTO 31008KT 10SM CLR 19/06 A3018 RMK AO2 T01910061=
KCBE 221900Z AUTO 35007KT 10SM CLR 20/07 A3017 RMK AO2 T01990066=
KCBE 221920Z AUTO 32005G16KT 10SM CLR 20/07 A3016 RMK AO2 T02050069=
KCBE 221940Z AUTO 31008KT 10SM CLR 21/06 A3015 RMK AO2 T02050061=
KCBE 222000Z AUTO 31007KT 10SM CLR 21/06 A3014 RMK AO2 T02080055=
KCBE 222020Z AUTO 32009KT 10SM CLR 21/06 A3014 RMK AO2 T02120065=
KCBE 222040Z AUTO 33011G15KT 10SM CLR 21/06 A3014 RMK AO2 T02120060=
KCBE 222100Z AUTO 33008KT 280V350 10SM CLR 21/06 A3014 RMK AO2 T02080056=
KCBE 222120Z AUTO 33009G16KT 10SM CLR 21/06 A3014 RMK AO2 T02120057=
KCBE 222140Z AUTO 32007KT 280V340 10SM CLR 21/06 A3014 RMK AO2 T02130059=
KCBE 222200Z AUTO 01007KT 10SM CLR 21/05 A3014 RMK AO2 T02100055=
KCBE 222220Z AUTO 02008KT 10SM CLR 21/06 A3014 RMK AO2 T02100057=
KCBE 222240Z AUTO 33011KT 10SM CLR 21/06 A3014 RMK AO2 T02090057=
KCBE 222300Z AUTO 33008KT 10SM CLR 21/05 A3014 RMK AO2 T02070055=
KCBE 222320Z AUTO 34007KT 10SM CLR 20/06 A3014 RMK AO2 T02020057=
KCBE 222340Z AUTO 34005KT 10SM CLR 19/06 A3014 RMK AO2 T01940057=
KCBE 230000Z AUTO 34004KT 10SM CLR 19/06 A3014 RMK AO2 T01900058=
KCBE 230020Z AUTO 36003KT 10SM CLR 19/05 A3014 RMK AO2 T01860053=
KCBE 230040Z AUTO 35003KT 10SM CLR 19/05 A3014 RMK AO2 T01870051=
KCBE 230100Z AUTO 33004KT 10SM CLR 18/05 A3015 RMK AO2 T01770053=
KCBE 230120Z AUTO 36003KT 10SM CLR 17/06 A3016 RMK AO2 T01670060=
KCBE 230140Z AUTO 03005KT 10SM CLR 15/06 A3016 RMK AO2 T01550062=
KCBE 230200Z AUTO 00000KT 10SM CLR 15/06 A3016 RMK AO2 T01530062=
KCBE 230220Z AUTO 36004KT 10SM CLR 16/06 A3016 RMK AO2 T01550062=
KCBE 230240Z AUTO 36004KT 10SM CLR 16/07 A3016 RMK AO2 T01560066=
KCBE 230300Z AUTO 34003KT 10SM CLR 14/07 A3016 RMK AO2 T01390071=
KCBE 230320Z AUTO 04004KT 10SM CLR 14/07 A3016 RMK AO2 T01390068=
KCBE 230340Z AUTO 04003KT 10SM CLR 14/06 A3016 RMK AO2 T01360063=
KCBE 230400Z AUTO 12003KT 10SM CLR 13/07 A3016 RMK AO2 T01290065=
KCBE 230420Z AUTO 26003KT 10SM CLR 13/07 A3016 RMK AO2 T01260073=
KCBE 230440Z AUTO 10003KT 10SM CLR 12/07 A3016 RMK AO2 T01190069=
KCBE 230500Z AUTO 00000KT 10SM CLR 10/08 A3016 RMK AO2 T00980077=
KCBE 230520Z AUTO 00000KT 10SM CLR 10/07 A3015 RMK AO2 T01030071=
KCBE 230540Z AUTO 00000KT 10SM CLR 10/07 A3014 RMK AO2 T00970070=
KCBE 230600Z AUTO 00000KT 10SM CLR 09/08 A3014 RMK AO2 T00940077=
KCBE 230620Z AUTO 00000KT 10SM CLR 09/07 A3013 RMK AO2 T00910074=
KCBE 230640Z AUTO 00000KT 10SM CLR 09/07 A3013 RMK AO2 T00880069=
KCBE 230700Z AUTO 34003KT 10SM CLR 10/07 A3013 RMK AO2 T00970069=
KCBE 230720Z AUTO 11004KT 10SM CLR 08/07 A3013 RMK AO2 T00830069=
KCBE 230740Z AUTO 00000KT 10SM CLR 08/07 A3013 RMK AO2 T00820071=
KCBE 230800Z AUTO 00000KT 10SM CLR 08/07 A3013 RMK AO2 T00760069=
KCBE 230820Z AUTO 00000KT 10SM CLR 08/07 A3013 RMK AO2 T00820068=
KCBE 230840Z AUTO 00000KT 10SM CLR 07/06 A3013 RMK AO2 T00700062=
KCBE 230900Z AUTO 03004KT 10SM CLR 07/06 A3013 RMK AO2 T00720062=
KCBE 230920Z AUTO 00000KT 10SM CLR 08/06 A3012 RMK AO2 T00780064=
KCBE 230940Z AUTO 00000KT 10SM CLR 07/07 A3013 RMK AO2 T00740065=
KCBE 231020Z AUTO 03003KT 10SM CLR 07/06 A3013 RMK AO2 T00700063=
KCBE 231040Z AUTO 00000KT 10SM CLR 07/06 A3013 RMK AO2 T00660057=